createdAt,value
2023-03-28T00:13:34.542Z,0.86
2023-03-28T01:13:34.521Z,0.79
2023-03-28T01:33:34.439Z,0.68
2023-03-28T01:53:34.413Z,0.56
2023-03-28T02:13:34.402Z,0.49
2023-03-28T02:33:34.453Z,0.4
2023-03-28T02:53:34.366Z,0.21
2023-03-28T03:13:34.352Z,-0.2
2023-03-28T03:33:34.319Z,-0.5
2023-03-28T03:53:34.314Z,-0.43
2023-03-28T04:13:34.280Z,-0.56
2023-03-28T04:33:34.274Z,-0.61
2023-03-28T04:53:34.245Z,-0.32
2023-03-28T05:13:34.213Z,0
2023-03-28T05:33:34.208Z,0.2
2023-03-28T05:53:34.217Z,0.29
2023-03-28T06:13:34.201Z,0.56
2023-03-28T06:33:34.122Z,0.64
2023-03-28T06:53:34.121Z,1.39
2023-03-28T07:13:34.090Z,2.51
2023-03-28T07:33:37.099Z,3.63
2023-03-28T07:53:34.040Z,4.1
2023-03-28T08:13:34.008Z,4.71
2023-03-28T08:33:33.979Z,4.87
2023-03-28T08:53:33.961Z,6.26
2023-03-28T09:13:33.925Z,6.89
2023-03-28T09:33:33.894Z,6.2
2023-03-28T09:53:33.880Z,6.32
2023-03-28T10:13:33.816Z,6.03
2023-03-28T10:33:33.813Z,6.88
2023-03-28T10:53:33.764Z,6.62
2023-03-28T11:13:33.726Z,7.7
2023-03-28T11:33:33.703Z,8.3
2023-03-28T11:53:33.653Z,8.11
2023-03-28T12:13:34.753Z,8.45
2023-03-28T12:33:33.590Z,8.89
2023-03-28T12:53:33.553Z,8.48
2023-03-28T13:13:33.536Z,8.78
2023-03-28T13:33:33.516Z,8.94
2023-03-28T13:53:44.598Z,9.39
2023-03-28T14:33:33.409Z,9.03
2023-03-28T14:53:33.349Z,9.22
2023-03-28T15:13:33.332Z,9.83
2023-03-28T15:33:33.278Z,10.14
2023-03-28T15:53:33.256Z,9.48
2023-03-28T16:13:33.226Z,9.02
2023-03-28T16:33:33.183Z,9
2023-03-28T17:33:33.122Z,8.56
2023-03-28T17:53:33.068Z,8.47
2023-03-28T18:13:33.008Z,8.28
2023-03-28T18:53:32.944Z,8.1
2023-03-28T20:13:32.872Z,6.94
2023-03-28T21:13:32.731Z,5.75
2023-03-28T21:33:32.686Z,5.34
2023-03-28T21:53:32.658Z,4.96
2023-03-28T22:13:32.630Z,4.78
2023-03-28T22:33:32.625Z,4.65
2023-03-28T22:53:32.583Z,4.57
2023-03-28T23:13:32.578Z,4.57
2023-03-28T23:33:32.528Z,4.6
2023-03-28T23:53:32.482Z,4.55
